CEB584 RPVM-RPLL
Flight info
| Callsign | CEB584 |
|---|---|
| Flight time | 0h 54m |
| Altitude | 36000 |
| Route | MULOP4P MULOP W11 CONDE CONDE7R |
| Aircraft | A21N/M-SDE3GHIJ4J5RWY/HB1 |
Departure
| Time | 2026-05-05 16:13 |
|---|---|
| Airport | Mactan Cebu International Airport (RPVM) |
Arrival
| Time | 2026-05-05 17:07 |
|---|---|
| Airport | Ninoy Aquino International Airport (RPLL) |
| Time | Latitude | Longitude | Altitude | Speed | Heading |
|---|---|---|---|---|---|
| 2026-05-05 15:46 | 10.31434 | 123.98116 | 40 ft | 0 kts | 315° |
| 2026-05-05 15:56 | 10.31428 | 123.98122 | 41 ft | 2 kts | 315° |
| 2026-05-05 15:57 | 10.31417 | 123.98133 | 40 ft | 2 kts | 315° |
| 2026-05-05 15:57 | 10.31406 | 123.98144 | 39 ft | 2 kts | 315° |
| 2026-05-05 15:57 | 10.31398 | 123.98157 | 39 ft | 2 kts | 282° |
| 2026-05-05 15:57 | 10.31397 | 123.98172 | 38 ft | 2 kts | 255° |
| 2026-05-05 15:58 | 10.31404 | 123.98186 | 38 ft | 2 kts | 225° |
| 2026-05-05 15:58 | 10.31416 | 123.98196 | 37 ft | 2 kts | 224° |
| 2026-05-05 15:58 | 10.31419 | 123.98199 | 38 ft | 0 kts | 226° |
| 2026-05-05 16:05 | 10.31418 | 123.98198 | 38 ft | 1 kts | 226° |
| 2026-05-05 16:06 | 10.31389 | 123.98169 | 37 ft | 9 kts | 224° |
| 2026-05-05 16:06 | 10.31329 | 123.98109 | 38 ft | 14 kts | 225° |
| 2026-05-05 16:06 | 10.31272 | 123.98051 | 39 ft | 18 kts | 224° |
| 2026-05-05 16:07 | 10.31181 | 123.97960 | 40 ft | 18 kts | 225° |
| 2026-05-05 16:07 | 10.31093 | 123.97871 | 41 ft | 17 kts | 225° |
| 2026-05-05 16:07 | 10.31008 | 123.97787 | 42 ft | 17 kts | 225° |
| 2026-05-05 16:07 | 10.30908 | 123.97686 | 38 ft | 22 kts | 225° |
| 2026-05-05 16:08 | 10.30787 | 123.97564 | 32 ft | 27 kts | 225° |
| 2026-05-05 16:08 | 10.30645 | 123.97421 | 28 ft | 29 kts | 225° |
| 2026-05-05 16:08 | 10.30500 | 123.97276 | 26 ft | 28 kts | 225° |
| 2026-05-05 16:08 | 10.30360 | 123.97136 | 24 ft | 27 kts | 225° |
| 2026-05-05 16:09 | 10.30224 | 123.96999 | 24 ft | 27 kts | 224° |
| 2026-05-05 16:09 | 10.30090 | 123.96865 | 26 ft | 26 kts | 225° |
| 2026-05-05 16:09 | 10.29964 | 123.96738 | 30 ft | 24 kts | 225° |
| 2026-05-05 16:09 | 10.29876 | 123.96713 | 31 ft | 12 kts | 142° |
| 2026-05-05 16:10 | 10.29810 | 123.96780 | 30 ft | 13 kts | 134° |
| 2026-05-05 16:10 | 10.29781 | 123.96810 | 29 ft | 0 kts | 134° |
| 2026-05-05 16:11 | 10.29779 | 123.96812 | 29 ft | 2 kts | 134° |
| 2026-05-05 16:11 | 10.29768 | 123.96952 | 25 ft | 12 kts | 45° |
| 2026-05-05 16:12 | 10.29994 | 123.97179 | 22 ft | 80 kts | 45° |
| 2026-05-05 16:12 | 10.31340 | 123.98526 | 231 ft | 169 kts | 44° |
| 2026-05-05 16:13 | 10.33933 | 124.01134 | 1945 ft | 185 kts | 45° |
| 2026-05-05 16:13 | 10.34872 | 124.02079 | 2363 ft | 195 kts | 44° |
| 2026-05-05 16:13 | 10.36100 | 124.02671 | 2743 ft | 208 kts | 3° |
| 2026-05-05 16:14 | 10.38695 | 124.01201 | 3702 ft | 225 kts | 324° |
| 2026-05-05 16:14 | 10.41398 | 123.99023 | 4280 ft | 264 kts | 323° |
| 2026-05-05 16:15 | 10.44385 | 123.96594 | 5401 ft | 280 kts | 323° |
| 2026-05-05 16:15 | 10.47461 | 123.94085 | 6711 ft | 287 kts | 323° |
| 2026-05-05 16:16 | 10.50638 | 123.91493 | 7990 ft | 293 kts | 323° |
| 2026-05-05 16:16 | 10.53837 | 123.88882 | 9179 ft | 299 kts | 323° |
| 2026-05-05 16:17 | 10.57120 | 123.86201 | 10286 ft | 305 kts | 323° |
| 2026-05-05 16:17 | 10.58805 | 123.84828 | 10563 ft | 319 kts | 323° |
| 2026-05-05 16:18 | 10.62422 | 123.81879 | 11089 ft | 344 kts | 323° |
| 2026-05-05 16:18 | 10.64326 | 123.80323 | 11570 ft | 347 kts | 323° |
| 2026-05-05 16:18 | 10.68131 | 123.77213 | 12603 ft | 351 kts | 323° |
| 2026-05-05 16:19 | 10.70047 | 123.75645 | 13078 ft | 353 kts | 323° |
| 2026-05-05 16:19 | 10.71959 | 123.74081 | 13540 ft | 356 kts | 323° |
| 2026-05-05 16:19 | 10.75859 | 123.70892 | 14433 ft | 361 kts | 322° |
| 2026-05-05 16:20 | 10.79804 | 123.67665 | 15288 ft | 365 kts | 323° |
| 2026-05-05 16:20 | 10.83797 | 123.64397 | 16089 ft | 370 kts | 322° |
| 2026-05-05 16:21 | 10.87855 | 123.61076 | 16861 ft | 375 kts | 322° |
| 2026-05-05 16:22 | 10.94043 | 123.56003 | 17942 ft | 383 kts | 322° |
| 2026-05-05 16:22 | 10.98223 | 123.52577 | 18623 ft | 388 kts | 322° |
| 2026-05-05 16:23 | 11.02597 | 123.49257 | 19270 ft | 392 kts | 327° |
| 2026-05-05 16:23 | 11.04840 | 123.47691 | 19582 ft | 394 kts | 327° |
| 2026-05-05 16:23 | 11.09407 | 123.44514 | 20203 ft | 399 kts | 327° |
| 2026-05-05 16:24 | 11.11717 | 123.42904 | 20519 ft | 400 kts | 327° |
| 2026-05-05 16:24 | 11.14058 | 123.41271 | 20825 ft | 402 kts | 327° |
| 2026-05-05 16:24 | 11.18712 | 123.38021 | 21407 ft | 406 kts | 327° |
| 2026-05-05 16:25 | 11.21061 | 123.36380 | 21689 ft | 408 kts | 326° |
| 2026-05-05 16:25 | 11.25806 | 123.33061 | 22250 ft | 411 kts | 326° |
| 2026-05-05 16:25 | 11.28167 | 123.31410 | 22538 ft | 413 kts | 326° |
| 2026-05-05 16:26 | 11.32936 | 123.28074 | 23099 ft | 416 kts | 326° |
| 2026-05-05 16:26 | 11.37758 | 123.24699 | 23670 ft | 419 kts | 326° |
| 2026-05-05 16:27 | 11.40194 | 123.22993 | 23967 ft | 420 kts | 326° |
| 2026-05-05 16:27 | 11.42614 | 123.21298 | 24252 ft | 421 kts | 326° |
| 2026-05-05 16:27 | 11.45026 | 123.19607 | 24535 ft | 422 kts | 326° |
| 2026-05-05 16:27 | 11.47456 | 123.17905 | 24805 ft | 423 kts | 326° |
| 2026-05-05 16:28 | 11.49887 | 123.16202 | 25066 ft | 425 kts | 325° |
| 2026-05-05 16:28 | 11.52356 | 123.14472 | 25331 ft | 426 kts | 325° |
| 2026-05-05 16:28 | 11.54787 | 123.12769 | 25586 ft | 427 kts | 325° |
| 2026-05-05 16:28 | 11.57296 | 123.11008 | 25860 ft | 428 kts | 325° |
| 2026-05-05 16:29 | 11.59726 | 123.09303 | 26114 ft | 429 kts | 325° |
| 2026-05-05 16:29 | 11.62209 | 123.07561 | 26376 ft | 430 kts | 325° |
| 2026-05-05 16:29 | 11.64694 | 123.05817 | 26630 ft | 431 kts | 325° |
| 2026-05-05 16:29 | 11.67196 | 123.04061 | 26873 ft | 432 kts | 325° |
| 2026-05-05 16:30 | 11.69684 | 123.02315 | 27112 ft | 434 kts | 325° |
| 2026-05-05 16:30 | 11.72165 | 123.00573 | 27344 ft | 435 kts | 324° |
| 2026-05-05 16:30 | 11.74693 | 122.98798 | 27581 ft | 436 kts | 324° |
| 2026-05-05 16:30 | 11.77215 | 122.97025 | 27819 ft | 437 kts | 324° |
| 2026-05-05 16:31 | 11.79711 | 122.95270 | 28056 ft | 438 kts | 324° |
| 2026-05-05 16:31 | 11.82229 | 122.93501 | 28290 ft | 439 kts | 324° |
| 2026-05-05 16:31 | 11.84771 | 122.91713 | 28526 ft | 440 kts | 324° |
| 2026-05-05 16:31 | 11.87310 | 122.89927 | 28755 ft | 442 kts | 324° |
| 2026-05-05 16:32 | 11.89850 | 122.88140 | 28978 ft | 443 kts | 324° |
| 2026-05-05 16:32 | 11.92410 | 122.86339 | 29195 ft | 444 kts | 324° |
| 2026-05-05 16:32 | 11.94956 | 122.84547 | 29406 ft | 446 kts | 324° |
| 2026-05-05 16:32 | 11.97530 | 122.82735 | 29615 ft | 447 kts | 324° |
| 2026-05-05 16:33 | 12.00086 | 122.80936 | 29807 ft | 449 kts | 324° |
| 2026-05-05 16:33 | 12.02673 | 122.79115 | 29844 ft | 449 kts | 324° |
| 2026-05-05 16:33 | 12.07878 | 122.75447 | 29857 ft | 449 kts | 324° |
| 2026-05-05 16:34 | 12.13066 | 122.71789 | 29860 ft | 448 kts | 324° |
| 2026-05-05 16:34 | 12.18220 | 122.68153 | 29858 ft | 448 kts | 324° |
| 2026-05-05 16:35 | 12.23368 | 122.64520 | 29857 ft | 448 kts | 324° |
| 2026-05-05 16:35 | 12.28515 | 122.60883 | 29857 ft | 448 kts | 324° |
| 2026-05-05 16:36 | 12.33667 | 122.57241 | 29859 ft | 448 kts | 324° |
| 2026-05-05 16:36 | 12.38808 | 122.53610 | 29860 ft | 449 kts | 324° |
| 2026-05-05 16:37 | 12.43970 | 122.49972 | 29861 ft | 449 kts | 324° |
| 2026-05-05 16:37 | 12.49182 | 122.46291 | 29864 ft | 449 kts | 324° |
| 2026-05-05 16:38 | 12.54327 | 122.42652 | 29866 ft | 448 kts | 324° |
| 2026-05-05 16:38 | 12.59489 | 122.38998 | 29869 ft | 448 kts | 324° |
| 2026-05-05 16:39 | 12.64646 | 122.35346 | 29871 ft | 448 kts | 324° |
| 2026-05-05 16:39 | 12.69779 | 122.31709 | 29873 ft | 448 kts | 324° |
| 2026-05-05 16:40 | 12.74942 | 122.28050 | 29872 ft | 448 kts | 324° |
| 2026-05-05 16:40 | 12.80080 | 122.24405 | 29871 ft | 448 kts | 324° |
| 2026-05-05 16:41 | 12.85225 | 122.20753 | 29870 ft | 448 kts | 324° |
| 2026-05-05 16:41 | 12.90404 | 122.17075 | 29871 ft | 448 kts | 324° |
| 2026-05-05 16:42 | 12.95550 | 122.13419 | 29872 ft | 447 kts | 324° |
| 2026-05-05 16:42 | 13.00702 | 122.09757 | 29873 ft | 448 kts | 324° |
| 2026-05-05 16:43 | 13.05841 | 122.06102 | 29870 ft | 448 kts | 324° |
| 2026-05-05 16:43 | 13.10975 | 122.02450 | 29884 ft | 448 kts | 324° |
| 2026-05-05 16:44 | 13.16141 | 121.98771 | 29904 ft | 448 kts | 324° |
| 2026-05-05 16:44 | 13.21314 | 121.95086 | 29915 ft | 448 kts | 324° |
| 2026-05-05 16:45 | 13.26458 | 121.91420 | 29920 ft | 447 kts | 324° |
| 2026-05-05 16:45 | 13.31513 | 121.87816 | 29421 ft | 439 kts | 324° |
| 2026-05-05 16:46 | 13.34027 | 121.86021 | 28682 ft | 441 kts | 324° |
| 2026-05-05 16:46 | 13.36579 | 121.84199 | 27816 ft | 445 kts | 324° |
| 2026-05-05 16:46 | 13.39133 | 121.82376 | 27154 ft | 444 kts | 324° |
| 2026-05-05 16:46 | 13.41675 | 121.80561 | 26578 ft | 441 kts | 324° |
| 2026-05-05 16:47 | 13.44174 | 121.78776 | 26016 ft | 438 kts | 324° |
| 2026-05-05 16:47 | 13.46688 | 121.76980 | 25441 ft | 436 kts | 324° |
| 2026-05-05 16:47 | 13.49179 | 121.75199 | 24876 ft | 433 kts | 324° |
| 2026-05-05 16:47 | 13.51638 | 121.73441 | 24328 ft | 430 kts | 324° |
| 2026-05-05 16:48 | 13.54106 | 121.71675 | 23776 ft | 427 kts | 325° |
| 2026-05-05 16:48 | 13.56524 | 121.69944 | 23248 ft | 425 kts | 325° |
| 2026-05-05 16:48 | 13.58934 | 121.68220 | 22722 ft | 422 kts | 325° |
| 2026-05-05 16:48 | 13.61332 | 121.66502 | 22241 ft | 418 kts | 325° |
| 2026-05-05 16:49 | 13.63706 | 121.64801 | 21782 ft | 415 kts | 325° |
| 2026-05-05 16:49 | 13.66090 | 121.63094 | 21317 ft | 411 kts | 325° |
| 2026-05-05 16:49 | 13.68378 | 121.61389 | 20896 ft | 407 kts | 322° |
| 2026-05-05 16:49 | 13.70569 | 121.59525 | 20455 ft | 404 kts | 319° |
| 2026-05-05 16:50 | 13.72680 | 121.57610 | 20003 ft | 402 kts | 318° |
| 2026-05-05 16:50 | 13.74779 | 121.55683 | 19537 ft | 399 kts | 318° |
| 2026-05-05 16:50 | 13.76823 | 121.53805 | 19085 ft | 397 kts | 319° |
| 2026-05-05 16:50 | 13.78875 | 121.51920 | 18630 ft | 395 kts | 319° |
| 2026-05-05 16:51 | 13.80925 | 121.50041 | 18170 ft | 392 kts | 319° |
| 2026-05-05 16:51 | 13.82953 | 121.48183 | 17715 ft | 390 kts | 319° |
| 2026-05-05 16:51 | 13.84974 | 121.46330 | 17265 ft | 388 kts | 319° |
| 2026-05-05 16:51 | 13.86984 | 121.44488 | 16821 ft | 385 kts | 319° |
| 2026-05-05 16:52 | 13.88974 | 121.42664 | 16369 ft | 383 kts | 319° |
| 2026-05-05 16:52 | 13.90973 | 121.40830 | 16015 ft | 377 kts | 319° |
| 2026-05-05 16:52 | 13.92905 | 121.39058 | 15939 ft | 368 kts | 319° |
| 2026-05-05 16:52 | 13.94798 | 121.37322 | 15934 ft | 360 kts | 319° |
| 2026-05-05 16:53 | 13.96635 | 121.35635 | 15933 ft | 343 kts | 319° |
| 2026-05-05 16:53 | 13.98394 | 121.34019 | 15931 ft | 327 kts | 319° |
| 2026-05-05 16:53 | 14.00060 | 121.32490 | 15938 ft | 317 kts | 319° |
| 2026-05-05 16:53 | 14.01695 | 121.30989 | 15816 ft | 314 kts | 319° |
| 2026-05-05 16:54 | 14.03381 | 121.29401 | 15187 ft | 323 kts | 315° |
| 2026-05-05 16:54 | 14.04795 | 121.27551 | 14438 ft | 336 kts | 302° |
| 2026-05-05 16:54 | 14.05858 | 121.25353 | 13656 ft | 348 kts | 292° |
| 2026-05-05 16:54 | 14.06743 | 121.23006 | 12981 ft | 355 kts | 291° |
| 2026-05-05 16:55 | 14.07614 | 121.20609 | 12516 ft | 353 kts | 291° |
| 2026-05-05 16:55 | 14.08480 | 121.18231 | 12100 ft | 351 kts | 291° |
| 2026-05-05 16:55 | 14.09348 | 121.15870 | 11664 ft | 349 kts | 291° |
| 2026-05-05 16:55 | 14.10209 | 121.13544 | 11217 ft | 347 kts | 291° |
| 2026-05-05 16:56 | 14.11062 | 121.11249 | 10840 ft | 343 kts | 291° |
| 2026-05-05 16:56 | 14.11900 | 121.08997 | 10663 ft | 332 kts | 291° |
| 2026-05-05 16:56 | 14.12722 | 121.06792 | 10477 ft | 323 kts | 291° |
| 2026-05-05 16:56 | 14.13524 | 121.04639 | 10300 ft | 313 kts | 291° |
| 2026-05-05 16:57 | 14.14298 | 121.02563 | 10028 ft | 307 kts | 291° |
| 2026-05-05 16:57 | 14.15067 | 121.00502 | 9655 ft | 306 kts | 291° |
| 2026-05-05 16:57 | 14.15829 | 120.98457 | 9280 ft | 304 kts | 291° |
| 2026-05-05 16:57 | 14.16592 | 120.96416 | 8918 ft | 302 kts | 292° |
| 2026-05-05 16:58 | 14.17646 | 120.94556 | 8525 ft | 299 kts | 315° |
| 2026-05-05 16:58 | 14.19317 | 120.93274 | 8173 ft | 292 kts | 332° |
| 2026-05-05 16:58 | 14.21093 | 120.92260 | 7825 ft | 290 kts | 333° |
| 2026-05-05 16:58 | 14.22890 | 120.91243 | 7451 ft | 288 kts | 333° |
| 2026-05-05 16:59 | 14.24645 | 120.90231 | 7192 ft | 282 kts | 332° |
| 2026-05-05 16:59 | 14.26336 | 120.89242 | 7007 ft | 272 kts | 332° |
| 2026-05-05 16:59 | 14.27949 | 120.88291 | 6815 ft | 264 kts | 333° |
| 2026-05-05 16:59 | 14.29546 | 120.87356 | 6565 ft | 257 kts | 333° |
| 2026-05-05 17:00 | 14.31076 | 120.86462 | 6242 ft | 248 kts | 333° |
| 2026-05-05 17:00 | 14.32543 | 120.85605 | 5879 ft | 240 kts | 333° |
| 2026-05-05 17:00 | 14.33997 | 120.84754 | 5506 ft | 233 kts | 333° |
| 2026-05-05 17:00 | 14.35379 | 120.83946 | 5134 ft | 227 kts | 333° |
| 2026-05-05 17:01 | 14.36735 | 120.83153 | 4829 ft | 218 kts | 333° |
| 2026-05-05 17:01 | 14.38051 | 120.82438 | 4521 ft | 206 kts | 343° |
| 2026-05-05 17:01 | 14.39396 | 120.82472 | 4119 ft | 191 kts | 27° |
| 2026-05-05 17:01 | 14.40412 | 120.83324 | 3765 ft | 185 kts | 51° |
| 2026-05-05 17:02 | 14.41158 | 120.84423 | 3410 ft | 186 kts | 59° |
| 2026-05-05 17:02 | 14.41799 | 120.85566 | 3107 ft | 183 kts | 62° |
| 2026-05-05 17:02 | 14.42425 | 120.86726 | 2898 ft | 183 kts | 62° |
| 2026-05-05 17:02 | 14.42539 | 120.86937 | 2853 ft | 181 kts | 62° |
| 2026-05-05 17:03 | 14.42825 | 120.87462 | 2741 ft | 178 kts | 62° |
| 2026-05-05 17:03 | 14.43446 | 120.88591 | 2520 ft | 181 kts | 61° |
| 2026-05-05 17:03 | 14.44071 | 120.89718 | 2275 ft | 182 kts | 62° |
| 2026-05-05 17:04 | 14.44703 | 120.90852 | 2031 ft | 178 kts | 61° |
| 2026-05-05 17:04 | 14.45301 | 120.91924 | 1792 ft | 165 kts | 61° |
| 2026-05-05 17:04 | 14.45854 | 120.92918 | 1592 ft | 158 kts | 61° |
| 2026-05-05 17:04 | 14.46405 | 120.93910 | 1402 ft | 156 kts | 62° |
| 2026-05-05 17:05 | 14.46930 | 120.94852 | 1170 ft | 145 kts | 63° |
| 2026-05-05 17:05 | 14.47423 | 120.95740 | 987 ft | 142 kts | 63° |
| 2026-05-05 17:05 | 14.47920 | 120.96635 | 798 ft | 142 kts | 62° |
| 2026-05-05 17:05 | 14.48414 | 120.97521 | 607 ft | 142 kts | 64° |
| 2026-05-05 17:06 | 14.48896 | 120.98401 | 419 ft | 141 kts | 62° |
| 2026-05-05 17:06 | 14.49383 | 120.99288 | 261 ft | 141 kts | 63° |
| 2026-05-05 17:06 | 14.49873 | 121.00170 | 75 ft | 142 kts | 64° |
| 2026-05-05 17:06 | 14.50321 | 121.00987 | 35 ft | 104 kts | 59° |
| 2026-05-05 17:07 | 14.50564 | 121.01427 | 47 ft | 50 kts | 62° |
| 2026-05-05 17:07 | 14.50725 | 121.01674 | 50 ft | 29 kts | 45° |
| 2026-05-05 17:07 | 14.50834 | 121.01773 | 51 ft | 10 kts | 37° |
| 2026-05-05 17:07 | 14.50891 | 121.01784 | 51 ft | 8 kts | 329° |
| 2026-05-05 17:08 | 14.50942 | 121.01735 | 53 ft | 11 kts | 315° |
| 2026-05-05 17:08 | 14.51003 | 121.01672 | 55 ft | 13 kts | 314° |
| 2026-05-05 17:08 | 14.51049 | 121.01625 | 55 ft | 15 kts | 315° |
| 2026-05-05 17:09 | 14.51129 | 121.01543 | 57 ft | 17 kts | 314° |
| 2026-05-05 17:09 | 14.51207 | 121.01460 | 59 ft | 11 kts | 315° |
| 2026-05-05 17:09 | 14.51271 | 121.01428 | 60 ft | 10 kts | 14° |
| 2026-05-05 17:09 | 14.51325 | 121.01480 | 60 ft | 11 kts | 50° |
| 2026-05-05 17:10 | 14.51379 | 121.01545 | 59 ft | 12 kts | 46° |
| 2026-05-05 17:10 | 14.51446 | 121.01588 | 57 ft | 12 kts | 348° |
| 2026-05-05 17:10 | 14.51522 | 121.01524 | 57 ft | 16 kts | 315° |
| 2026-05-05 17:10 | 14.51617 | 121.01426 | 54 ft | 21 kts | 314° |
| 2026-05-05 17:11 | 14.51738 | 121.01299 | 48 ft | 25 kts | 315° |
| 2026-05-05 17:11 | 14.51864 | 121.01169 | 45 ft | 17 kts | 315° |
| 2026-05-05 17:11 | 14.51939 | 121.01091 | 43 ft | 15 kts | 315° |
| 2026-05-05 17:11 | 14.52024 | 121.01004 | 41 ft | 17 kts | 315° |
| 2026-05-05 17:12 | 14.52114 | 121.00911 | 39 ft | 17 kts | 315° |
| 2026-05-05 17:12 | 14.52169 | 121.00854 | 35 ft | 8 kts | 314° |
| 2026-05-05 17:12 | 14.52194 | 121.00831 | 34 ft | 2 kts | 341° |
| 2026-05-05 17:12 | 14.52216 | 121.00840 | 34 ft | 5 kts | 43° |
| 2026-05-05 17:13 | 14.52250 | 121.00873 | 34 ft | 6 kts | 44° |
| 2026-05-05 17:13 | 14.52279 | 121.00902 | 35 ft | 3 kts | 44° |
| 2026-05-05 17:13 | 14.52283 | 121.00906 | 35 ft | 0 kts | 44° |